Time;durP1;ratioP1;P1;durP2;ratioP2;P2;SDS_P1;SDS_P2;PMS_P1;PMS_P2;Temp;Humidity;BMP_temperature;BMP_pressure;BME280_temperature;BME280_humidity;BME280_pressure;Samples;Min_cycle;Max_cycle;Signal;HPM_P1;HPM_P2
2024/03/25 00:12:10;;;;;;;2.53;1.08;;;;;;;7.44;100.00;97825.03;5020575;23;20059;-95
2024/03/25 00:23:27;;;;;;;1.85;1.15;;;;;;;7.81;100.00;97949.19;5343603;23;20034;-96
2024/03/25 00:26:19;;;;;;;5.45;1.35;;;;;;;6.95;100.00;97833.47;5017405;28;20026;-95
2024/03/25 00:49:28;;;;;;;3.30;1.73;;;;;;;5.88;100.00;97841.44;5465847;23;20072;-95
2024/03/25 01:00:45;;;;;;;3.05;1.42;;;;;;;6.58;100.00;97928.69;4999167;23;20998;-93
2024/03/25 01:03:12;;;;;;;3.05;1.27;;;;;;;5.89;100.00;97807.09;4884920;29;20060;-95
2024/03/25 01:05:56;;;;;;;2.10;1.17;;;;;;;6.66;100.00;97921.44;4887177;29;20049;-96
2024/03/25 01:08:36;;;;;;;2.92;1.52;;;;;;;5.99;100.00;97806.94;4886768;29;20033;-96
2024/03/25 01:11:06;;;;;;;;;;;;;;;6.65;100.00;97922.34;4886045;29;20048;-95
2024/03/25 01:13:34;;;;;;;2.40;1.10;;;;;;;6.77;100.00;97918.53;4885753;29;19908;-95
2024/03/25 01:16:02;;;;;;;2.80;1.33;;;;;;;6.03;100.00;97788.34;4896515;29;20037;-96
2024/03/25 01:22:08;;;;;;;2.22;1.27;;;;;;;5.97;100.00;97789.34;5083469;23;20093;-96
2024/03/25 01:41:46;;;;;;;3.10;1.20;;;;;;;6.63;100.00;97924.16;5763625;23;20023;31
2024/03/25 01:44:53;;;;;;;;;;;;;;;;;;;;;
2024/03/25 01:47:39;;;;;;;2.78;1.27;;;;;;;5.95;100.00;97819.31;4927708;29;20052;-95
2024/03/25 03:40:33;;;;;;;3.45;1.48;;;;;;;5.30;100.00;97949.91;5714348;23;20022;31
2024/03/25 04:45:58;;;;;;;6.63;2.13;;;;;;;3.73;100.00;97817.44;5864827;23;20027;-94
2024/03/25 05:05:46;;;;;;;6.00;2.67;;;;;;;4.17;100.00;97901.84;5781102;23;20052;-94
2024/03/25 06:38:12;;;;;;;;;;;;;;;6.55;100.00;98142.72;5785316;23;20019;-94
2024/03/25 06:40:54;;;;;;;3.03;1.33;;;;;;;6.39;100.00;98081.41;4883054;29;19949;-95
2024/03/25 06:43:26;;;;;;;2.20;1.45;;;;;;;6.17;100.00;98028.19;4880717;29;20140;-96
2024/03/25 06:46:19;;;;;;;3.42;1.90;;;;;;;6.26;100.00;98027.13;5040440;23;20056;-95
2024/03/25 06:49:16;;;;;;;2.40;1.23;;;;;;;6.45;100.00;98028.47;4908437;29;20057;-96
2024/03/25 06:52:20;;;;;;;5.50;1.80;;;;;;;7.29;100.00;98147.22;4913358;29;20037;-95
2024/03/25 06:54:46;;;;;;;4.88;1.80;;;;;;;7.27;100.00;98127.03;4905032;29;20488;-95
2024/03/25 06:57:15;;;;;;;4.15;2.25;;;;;;;6.91;100.00;98034.44;4910548;23;20065;-96
2024/03/25 06:59:42;;;;;;;2.55;1.52;;;;;;;7.85;100.00;98149.38;4899551;29;20053;-95
2024/03/25 07:02:08;;;;;;;4.93;1.60;;;;;;;7.18;100.00;98032.91;4908099;29;20020;-96
2024/03/25 07:04:50;;;;;;;7.65;2.90;;;;;;;7.61;100.00;98079.41;5060533;23;20030;-94
2024/03/25 07:07:35;;;;;;;4.95;2.10;;;;;;;7.91;100.00;98151.84;4949506;23;20056;-95
2024/03/25 07:10:31;;;;;;;3.13;1.48;;;;;;;6.90;100.00;98030.09;5080705;23;20132;-95
2024/03/25 07:16:04;;;;;;;3.28;1.70;;;;;;;7.07;100.00;98135.41;5151241;27;20378;-94
2024/03/25 07:18:30;;;;;;;4.78;1.83;;;;;;;7.11;100.00;98130.03;5124121;28;20056;-95
2024/03/25 07:21:18;;;;;;;4.30;2.28;;;;;;;7.39;100.00;98129.34;5131831;27;20060;-96
2024/03/25 07:23:44;;;;;;;3.65;1.83;;;;;;;6.57;100.00;97977.13;5129357;28;20495;-96
2024/03/25 07:26:27;;;;;;;2.08;1.20;;;;;;;7.09;100.00;97982.91;5129949;28;20044;-96
2024/03/25 07:28:53;;;;;;;5.20;1.88;;;;;;;7.52;100.00;98030.25;5207366;22;20046;-96
2024/03/25 07:31:23;;;;;;;5.15;1.85;;;;;;;7.57;100.00;97995.75;5114282;22;20069;-96
2024/03/25 07:33:49;;;;;;;4.05;2.50;;;;;;;8.21;100.00;98136.91;5041138;28;20057;-94
2024/03/25 07:36:18;;;;;;;3.28;1.65;;;;;;;7.28;100.00;98025.59;5042405;28;20052;-96
2024/03/25 07:38:49;;;;;;;3.05;1.63;;;;;;;7.29;100.00;97987.69;5047393;28;20055;-96
2024/03/25 07:44:17;;;;;;;5.32;1.95;;;;;;;7.95;100.00;98005.22;5198321;22;20062;-96
2024/03/25 07:46:45;;;;;;;5.63;2.30;;;;;;;8.63;100.00;98119.84;5044199;28;20538;-96
2024/03/25 07:49:11;;;;;;;6.05;2.22;;;;;;;8.53;100.00;98129.00;5042014;28;20042;-96
2024/03/25 07:54:37;;;;;;;4.45;2.17;;;;;;;8.42;100.00;97986.25;5100151;22;20033;-96
2024/03/25 07:57:05;;;;;;;3.97;1.85;;;;;;;8.75;100.00;98000.19;5094266;22;20041;-96
2024/03/25 07:59:32;;;;;;;3.67;1.85;;;;;;;8.75;100.00;97996.69;5350004;23;20085;-96
2024/03/25 08:02:12;;;;;;;4.55;1.85;;;;;;;9.04;100.00;98007.22;5039953;28;20049;-96
2024/03/25 08:04:39;;;;;;;6.22;2.25;;;;;;;8.62;100.00;97977.66;5040702;28;20041;-96
2024/03/25 08:07:06;;;;;;;4.10;2.00;;;;;;;9.96;100.00;98114.69;5048729;28;20036;-96
2024/03/25 08:09:36;;;;;;;3.85;2.00;;;;;;;10.03;100.00;98108.22;5040160;28;20076;-96
2024/03/25 08:12:12;;;;;;;5.80;2.10;;;;;;;9.64;100.00;97985.69;5045518;28;20050;-95
2024/03/25 08:18:02;;;;;;;6.72;2.90;;;;;;;11.08;100.00;98059.97;5430795;23;20049;-95
2024/03/25 08:20:32;;;;;;;5.18;2.63;;;;;;;11.58;100.00;98088.09;5155577;22;20092;-96
2024/03/25 08:22:58;;;;;;;4.53;2.33;;;;;;;11.08;100.00;97989.91;5048693;28;20050;-96
2024/03/25 08:25:24;;;;;;;7.93;3.08;;;;;;;10.68;100.00;97975.59;5041011;28;20109;-96
2024/03/25 08:27:50;;;;;;;7.65;3.20;;;;;;;11.13;100.00;98098.84;5027286;28;20117;-95
2024/03/25 08:30:17;;;;;;;7.93;2.72;;;;;;;11.34;100.00;98097.94;5030053;28;20038;-95
2024/03/25 08:32:45;;;;;;;3.67;2.10;;;;;;;10.87;100.00;97976.56;5033160;28;20041;-95
2024/03/25 08:35:11;;;;;;;5.65;2.45;;;;;;;12.02;100.00;98101.34;5035719;28;20034;-95
2024/03/25 08:37:37;;;;;;;5.82;2.22;;;;;;;12.32;100.00;98101.78;5020659;28;20136;-94
2024/03/25 08:40:04;;;;;;;5.97;2.58;;;;;;;12.54;100.00;98100.81;5030541;28;20045;-95
2024/03/25 08:42:30;;;;;;;4.03;1.77;;;;;;;12.87;100.00;98098.38;5024702;28;20077;-94
2024/03/25 08:44:56;;;;;;;6.55;2.08;;;;;;;12.76;100.00;98100.69;5022999;28;20136;-95
2024/03/25 08:47:22;;;;;;;5.13;2.03;;;;;;;12.82;100.00;98095.06;5021308;28;20037;-95
2024/03/25 08:49:49;;;;;;;3.53;1.90;;;;;;;12.40;100.00;97952.09;5024918;28;20060;-95
2024/03/25 08:52:15;;;;;;;4.32;2.15;;;;;;;13.46;100.00;98074.22;5028186;28;20039;-96
2024/03/25 08:54:41;;;;;;;2.35;1.52;;;;;;;13.60;100.00;98077.06;5022754;28;20132;-95
2024/03/25 08:57:07;;;;;;;3.25;1.45;;;;;;;13.64;100.00;98051.03;5031411;28;20042;-94
2024/03/25 08:59:33;;;;;;;2.25;0.95;;;;;;;13.65;83.36;98072.34;5038716;28;20044;-93
2024/03/25 09:01:58;;;;;;;4.93;1.10;;;;;;;13.41;71.13;97994.34;5045560;28;20026;-94
2024/03/25 09:04:24;;;;;;;2.85;1.45;;;;;;;13.70;69.42;97990.16;5049267;28;20022;-95
2024/03/25 09:06:52;;;;;;;2.97;1.10;;;;;;;14.39;65.44;98065.84;5038382;28;20049;-95
2024/03/25 09:12:22;;;;;;;2.95;1.00;;;;;;;14.72;57.97;98062.28;5159261;27;20339;-95
2024/03/25 09:14:48;;;;;;;3.40;1.05;;;;;;;14.66;59.27;98022.50;5138326;28;20027;-96
2024/03/25 09:17:14;;;;;;;4.97;1.60;;;;;;;14.62;60.69;98061.09;5115701;28;20051;-95
2024/03/25 09:19:40;;;;;;;4.95;2.30;;;;;;;14.72;60.34;98055.13;5112243;28;20036;-96
2024/03/25 09:22:06;;;;;;;4.93;1.80;;;;;;;14.23;60.98;97923.22;5107048;28;20040;-96
2024/03/25 09:24:32;;;;;;;5.38;2.22;;;;;;;14.98;60.41;98026.03;5190716;23;20050;-95
2024/03/25 09:33:56;;;;;;;3.17;1.70;;;;;;;14.66;56.41;97928.84;5107141;23;20063;-96
2024/03/25 09:36:36;;;;;;;4.53;1.63;;;;;;;14.27;58.34;97924.75;5008153;28;20031;-96
2024/03/25 09:39:11;;;;;;;2.67;1.45;;;;;;;15.30;57.66;98045.63;4992440;28;20035;-96
2024/03/25 09:49:31;;;;;;;2.38;1.45;;;;;;;14.91;52.85;98006.78;5020863;28;20046;-96
2024/03/25 09:51:59;;;;;;;3.08;1.20;;;;;;;14.29;53.32;97931.75;5024335;28;20046;-96
2024/03/25 09:57:21;;;;;;;1.70;1.10;;;;;;;14.95;51.86;97938.72;5008722;28;20051;-96
2024/03/25 09:59:54;;;;;;;2.88;1.38;;;;;;;15.69;48.48;98046.91;5362464;23;20041;-96
2024/03/25 10:02:50;;;;;;;2.90;0.82;;;;;;;15.19;43.05;98035.53;5048663;28;20069;-96
2024/03/25 10:10:41;;;;;;;2.10;0.60;;;;;;;15.10;37.47;97912.88;5380442;23;20065;-96
2024/03/25 10:13:07;;;;;;;1.98;0.65;;;;;;;16.04;37.79;98041.28;5034080;28;20437;-94
2024/03/25 10:15:35;;;;;;;0.73;0.50;;;;;;;15.81;40.35;98035.50;5118447;23;20060;-96
2024/03/25 10:18:09;;;;;;;2.75;0.80;;;;;;;16.02;39.10;98036.00;4996532;28;20038;-96
2024/03/25 11:02:17;;;;;;;1.17;0.50;;;;;;;16.49;30.75;97971.44;3996262;23;20215;-95
2024/03/25 11:04:45;;;;;;;3.45;0.55;;;;;;;16.54;28.37;97963.94;5270621;23;20023;-96
2024/03/25 11:07:13;;;;;;;1.25;0.47;;;;;;;15.76;29.08;97824.94;4973981;23;20064;-95
2024/03/25 11:09:41;;;;;;;2.35;0.32;;;;;;;15.56;31.65;97853.84;4894869;29;20059;-96
2024/03/25 11:12:11;;;;;;;0.55;0.38;;;;;;;14.82;30.02;97838.69;4895075;29;20512;-96
2024/03/25 11:14:38;;;;;;;0.57;0.30;;;;;;;14.76;30.30;97833.69;4897604;29;20080;-96
2024/03/25 11:17:15;;;;;;;0.75;0.40;;;;;;;14.89;31.13;97820.44;5013569;23;20089;-96
2024/03/25 11:19:57;;;;;;;1.48;0.47;;;;;;;15.23;30.19;97808.56;4893797;29;20041;-96
2024/03/25 11:22:26;;;;;;;0.63;0.40;;;;;;;16.19;31.23;97910.72;4910154;29;20144;-96
2024/03/25 11:27:27;;;;;;;2.00;0.45;;;;;;;16.41;30.97;97918.25;4912271;23;20053;-95
2024/03/25 11:29:53;;;;;;;1.67;0.40;;;;;;;15.80;32.74;97800.53;4943362;23;20059;-96
2024/03/25 11:32:20;;;;;;;3.00;0.52;;;;;;;16.28;31.83;97915.50;4987825;23;20064;-94
2024/03/25 11:34:52;;;;;;;1.38;0.45;;;;;;;15.03;32.42;97792.84;4882072;29;20041;-96
2024/03/25 11:37:18;;;;;;;1.55;0.32;;;;;;;16.12;32.72;97915.63;4884873;29;20045;-95
2024/03/25 11:39:46;;;;;;;1.58;0.50;;;;;;;16.31;33.28;97891.16;4887396;29;20052;-96
2024/03/25 11:42:20;;;;;;;1.30;0.60;;;;;;;15.77;32.08;97778.44;4899565;29;20045;-95
2024/03/25 11:44:48;;;;;;;0.70;0.40;;;;;;;15.93;32.40;97783.66;4900200;29;20136;-96
2024/03/25 11:47:15;;;;;;;1.05;0.40;;;;;;;16.12;30.68;97826.25;5105069;23;20131;-96
2024/03/25 11:49:41;;;;;;;0.60;0.43;;;;;;;16.45;32.12;97886.72;4896023;29;20147;-96
2024/03/25 11:52:10;;;;;;;1.63;0.85;;;;;;;16.25;33.30;97891.56;4892924;29;20065;-96
2024/03/25 11:54:37;;;;;;;1.92;0.70;;;;;;;16.33;33.85;97881.19;4893531;29;20120;-96
2024/03/25 11:57:08;;;;;;;1.15;0.47;;;;;;;15.54;33.58;97770.00;4887147;29;20060;-95
2024/03/25 12:02:05;;;;;;;1.95;0.77;;;;;;;15.55;32.52;97771.75;4871182;29;20053;-96
2024/03/25 12:04:43;;;;;;;2.65;0.60;;;;;;;16.38;32.43;97873.69;4877672;29;20061;-95
2024/03/25 12:14:05;;;;;;;2.30;0.85;;;;;;;16.87;33.02;97852.66;5246172;22;3998111;-95
2024/03/25 12:16:54;;;;;;;1.00;0.50;;;;;;;16.13;31.19;97732.25;5086948;28;20056;-96
2024/03/25 12:22:03;;;;;;;1.85;0.63;;;;;;;17.16;29.66;97861.44;6016616;22;20044;-96
2024/03/25 12:24:50;;;;;;;1.73;0.60;;;;;;;17.17;30.47;97790.59;5208139;22;20072;-96
2024/03/25 12:27:20;;;;;;;1.05;0.60;;;;;;;17.48;29.98;97742.75;5403604;22;20112;-96
2024/03/25 12:40:04;;;;;;;1.00;0.50;;;;;;;17.80;29.35;97710.84;5053047;28;20100;-96
2024/03/25 12:42:31;;;;;;;3.40;1.05;;;;;;;18.23;30.44;97770.44;5051930;28;20048;-95
2024/03/25 12:44:57;;;;;;;1.88;0.63;;;;;;;18.09;30.03;97777.84;5043555;28;20524;-96
2024/03/25 12:47:34;;;;;;;2.38;1.42;;;;;;;17.86;30.56;97700.53;5046627;28;20398;-96
2024/03/25 12:50:01;;;;;;;6.45;0.60;;;;;;;18.32;29.76;97778.81;5069073;28;20065;-96
2024/03/25 12:52:27;;;;;;;1.85;0.80;;;;;;;18.45;29.94;97823.56;5045630;28;20048;-96
2024/03/25 12:54:54;;;;;;;1.27;0.73;;;;;;;18.42;28.48;97814.84;5041942;28;20392;-96
2024/03/25 12:57:20;;;;;;;1.30;0.60;;;;;;;17.81;28.81;97806.72;5048547;28;20121;-96
2024/03/25 12:59:47;;;;;;;0.75;0.43;;;;;;;17.28;29.45;97779.97;5042490;28;20056;-96
2024/03/25 13:02:13;;;;;;;0.63;0.52;;;;;;;16.49;30.67;97679.78;5043382;28;20048;-96
2024/03/25 13:04:45;;;;;;;3.38;0.82;;;;;;;17.25;30.93;97799.00;5052453;28;20025;-96
2024/03/25 13:07:16;;;;;;;2.30;1.00;;;;;;;16.52;30.91;97671.50;5053541;28;20025;-96
2024/03/25 13:09:48;;;;;;;1.50;0.70;;;;;;;17.27;31.42;97797.06;5067188;28;20050;-96
2024/03/25 13:12:42;;;;;;;1.55;0.70;;;;;;;17.36;31.88;97795.56;5049698;28;20052;-96
2024/03/25 13:15:31;;;;;;;1.13;0.65;;;;;;;16.72;31.35;97670.16;5318277;22;20053;-96
2024/03/25 13:18:00;;;;;;;1.05;0.70;;;;;;;16.85;30.42;97664.81;5047474;28;20049;-96
2024/03/25 13:20:27;;;;;;;1.35;0.82;;;;;;;17.03;32.19;97681.47;5043406;28;20041;-95
2024/03/25 13:22:58;;;;;;;1.40;0.77;;;;;;;17.00;31.83;97666.44;5044062;28;20045;-96
2024/03/25 13:25:24;;;;;;;1.95;1.00;;;;;;;17.83;32.86;97783.28;5028718;28;20053;-96
2024/03/25 13:48:29;;;;;;;1.98;0.98;;;;;;;16.93;33.80;97701.88;5219347;23;20031;-96
2024/03/25 13:51:04;;;;;;;2.40;1.10;;;;;;;16.92;33.19;97673.31;4971952;28;20047;-96
2024/03/25 14:54:20;;;;;;;2.17;0.70;;;;;;;17.82;32.18;97665.91;5069870;23;20029;-95
2024/03/25 14:57:19;;;;;;;3.47;0.68;;;;;;;18.26;31.68;97745.16;4965724;29;20031;-96
2024/03/25 15:06:52;;;;;;;3.20;0.85;;;;;;;18.02;31.50;97724.50;5114296;23;20097;-96
2024/03/25 15:20:00;;;;;;;1.70;0.60;;;;;;;17.12;32.41;97583.25;5971000;23;20356;-96
2024/03/25 15:36:53;;;;;;;3.78;1.70;;;;;;;17.11;31.79;97660.28;5418584;23;20059;-96
2024/03/25 15:44:52;;;;;;;2.40;1.30;;;;;;;16.34;33.27;97579.75;5300743;23;20057;-96
2024/03/25 15:57:39;;;;;;;4.95;1.38;;;;;;;15.77;36.05;97555.97;5836172;23;20056;31
2024/03/25 16:00:25;;;;;;;1.58;0.93;;;;;;;16.32;38.02;97637.16;2113510;23;20104;-96
2024/03/25 16:35:40;;;;;;;2.95;1.70;;;;;;;15.85;43.19;97623.31;5492437;23;20050;-95
2024/03/25 16:47:20;;;;;;;3.43;1.00;;;;;;;14.77;50.46;97630.22;5931358;23;20968;31
2024/03/25 17:36:08;;;;;;;5.47;2.80;;;;;;;13.16;55.43;97647.63;5432027;23;20472;31
2024/03/25 17:46:43;;;;;;;6.50;2.78;;;;;;;12.77;57.83;97653.34;5400801;23;20277;-95
2024/03/25 18:02:16;;;;;;;6.97;2.33;;;;;;;12.53;56.56;97667.94;5071463;23;20053;-95
2024/03/25 18:04:52;;;;;;;5.05;2.50;;;;;;;12.05;57.42;97581.56;5202665;23;20335;-95
2024/03/25 18:07:31;;;;;;;;;;;;;;;;;;;;;
2024/03/25 18:10:01;;;;;;;4.32;2.15;;;;;;;12.21;59.14;97602.97;4954084;29;20055;-95
2024/03/25 18:12:33;;;;;;;7.25;2.83;;;;;;;12.62;58.33;97684.38;4948529;29;20138;-96
2024/03/25 18:29:03;;;;;;;7.22;2.20;;;;;;;12.40;61.45;97722.81;4986707;28;20055;-95
2024/03/25 18:31:29;;;;;;;22.63;10.15;;;;;;;12.03;60.20;97660.72;4980286;28;20146;-95
2024/03/25 18:33:58;;;;;;;46.72;20.75;;;;;;;11.58;58.93;97589.28;4975916;28;20113;-96
2024/03/25 18:36:26;;;;;;;57.83;26.30;;;;;;;11.75;56.50;97585.78;4971054;28;20110;-96
2024/03/25 18:38:53;;;;;;;52.50;23.27;;;;;;;12.31;54.27;97660.16;4968604;28;20047;-96
2024/03/25 18:41:19;;;;;;;36.22;16.55;;;;;;;12.01;54.31;97581.81;4960627;28;20043;-95
2024/03/25 18:43:45;;;;;;;32.70;15.48;;;;;;;12.85;55.12;97708.03;4967246;28;20050;-95
2024/03/25 18:46:13;;;;;;;32.25;14.57;;;;;;;12.22;56.21;97598.50;4965491;28;20050;-96
2024/03/25 18:48:39;;;;;;;24.67;10.18;;;;;;;12.25;57.14;97575.22;4964780;28;20125;-94
2024/03/25 18:51:06;;;;;;;22.23;10.13;;;;;;;12.24;58.13;97564.63;4966604;28;20043;-95
2024/03/25 18:53:32;;;;;;;21.40;7.40;;;;;;;12.40;59.10;97578.00;4962928;28;20495;-94
2024/03/25 18:55:58;;;;;;;12.95;5.93;;;;;;;12.74;60.85;97625.03;4961494;28;20149;-95
2024/03/25 18:58:23;;;;;;;14.80;5.88;;;;;;;13.24;61.39;97692.59;4959595;28;20043;-94
2024/03/25 19:00:52;;;;;;;13.88;5.82;;;;;;;12.41;61.71;97555.72;4971875;28;20050;-96
2024/03/25 19:37:25;;;;;;;16.65;6.65;;;;;;;13.26;60.43;97616.81;5729294;23;20036;-95
2024/03/25 19:40:19;;;;;;;14.05;6.50;;;;;;;12.28;63.25;97532.38;4959205;28;20123;-96
2024/03/25 19:43:27;;;;;;;11.80;4.78;;;;;;;12.49;64.62;97551.72;4976777;28;20062;-96
2024/03/25 19:46:00;;;;;;;11.15;4.88;;;;;;;12.99;66.27;97635.25;4981918;28;20074;-96
2024/03/25 19:48:29;;;;;;;12.20;4.55;;;;;;;12.23;67.16;97523.78;4984113;28;20142;-94
2024/03/25 19:50:58;;;;;;;9.98;4.65;;;;;;;12.08;66.91;97497.97;4987560;28;20043;-94
2024/03/25 19:53:25;;;;;;;12.32;4.95;;;;;;;12.47;68.31;97574.03;4984589;28;20137;-94
2024/03/25 20:23:37;;;;;;;8.77;4.03;;;;;;;11.60;82.81;97699.25;5014919;28;20064;-95
2024/03/25 20:26:07;;;;;;;9.88;3.53;;;;;;;10.85;81.16;97558.22;4999207;28;20048;-95
2024/03/25 20:28:36;;;;;;;11.75;4.28;;;;;;;10.95;81.13;97561.31;5000006;28;20042;-95
2024/03/25 20:31:13;;;;;;;11.88;4.40;;;;;;;10.86;82.43;97575.91;4997878;28;20061;-95
2024/03/25 20:37:49;;;;;;;9.07;3.47;;;;;;;10.74;81.64;97565.84;5257854;23;20062;-94
2024/03/25 20:40:25;;;;;;;10.23;3.60;;;;;;;10.64;81.54;97537.97;4987839;28;20027;-95
2024/03/25 20:42:53;;;;;;;11.57;3.22;;;;;;;11.44;82.23;97694.66;5036103;23;20043;-95
2024/03/25 20:45:28;;;;;;;15.57;5.75;;;;;;;10.41;83.95;97541.69;4984620;28;20098;-95
2024/03/25 20:47:58;;;;;;;12.50;4.10;;;;;;;10.56;85.77;97577.31;4984903;28;20054;-96
2024/03/25 20:50:30;;;;;;;11.02;4.20;;;;;;;10.85;84.17;97600.78;4983268;28;20031;-92
2024/03/25 20:52:59;;;;;;;11.45;4.32;;;;;;;10.30;86.19;97543.97;4960745;28;20487;-94
2024/03/25 20:55:34;;;;;;;9.07;3.45;;;;;;;11.08;87.46;97665.31;4954928;29;20067;-95
2024/03/25 20:58:00;;;;;;;6.30;2.90;;;;;;;11.09;87.21;97670.56;4958694;29;20048;-95
2024/03/25 21:00:31;;;;;;;7.03;1.90;;;;;;;10.16;87.38;97516.22;4954263;29;20039;-94
2024/03/25 21:02:58;;;;;;;7.75;2.22;;;;;;;11.13;86.15;97675.78;4952258;29;20115;-94
2024/03/25 21:05:24;;;;;;;9.88;2.60;;;;;;;10.35;86.99;97557.94;4947915;29;20051;-95
2024/03/25 21:07:55;;;;;;;5.20;2.22;;;;;;;10.89;88.23;97678.63;4952479;29;20481;-96
2024/03/25 21:10:22;;;;;;;7.60;2.75;;;;;;;11.05;87.67;97692.06;4944150;29;20043;-93
2024/03/25 21:12:57;;;;;;;7.68;2.33;;;;;;;10.14;88.07;97530.50;4942583;29;20044;-96
2024/03/25 21:15:29;;;;;;;8.55;1.95;;;;;;;10.26;87.08;97538.78;4963327;29;20575;-94
2024/03/25 21:21:21;;;;;;;10.85;2.33;;;;;;;10.45;85.36;97565.41;4997416;28;20047;-95
2024/03/25 22:00:07;;;;;;;10.45;3.90;;;;;;;10.80;84.45;97554.94;5849995;23;20048;-95
2024/03/25 22:19:20;;;;;;;13.15;3.67;;;;;;;10.68;84.27;97566.13;4955282;29;20055;-93
2024/03/25 22:21:50;;;;;;;9.40;4.60;;;;;;;11.12;85.74;97644.75;4939305;29;20075;-94
2024/03/25 22:24:19;;;;;;;11.10;4.13;;;;;;;10.11;86.63;97520.03;4943333;29;20084;-95
2024/03/25 22:29:36;;;;;;;15.95;5.82;;;;;;;10.65;91.14;97662.84;5318839;23;20078;-95
2024/03/25 22:32:06;;;;;;;15.68;5.18;;;;;;;9.80;90.67;97521.38;4972959;29;20045;-93
2024/03/25 22:54:22;;;;;;;10.65;3.85;;;;;;;9.53;100.00;97590.66;4957858;28;20064;-95
2024/03/25 22:56:49;;;;;;;11.20;3.15;;;;;;;9.34;100.00;97504.78;4940234;29;20150;-95
2024/03/25 23:01:58;;;;;;;7.72;2.70;;;;;;;9.88;94.66;97479.41;4972321;23;20086;-94
2024/03/25 23:04:33;;;;;;;10.73;2.53;;;;;;;10.95;92.25;97632.25;5191712;23;20098;-95
